sensor_id;sensor_type;location;lat;lon;timestamp;pressure;altitude;pressure_sealevel;temperature;humidity
11525;BME280;5819;49.648;8.330;2023-04-28T00:00:52;100228.66;;;12.09;79.69
11525;BME280;5819;49.648;8.330;2023-04-28T00:03:20;100221.31;;;12.17;82.52
11525;BME280;5819;49.648;8.330;2023-04-28T00:05:48;100221.91;;;12.23;86.74
11525;BME280;5819;49.648;8.330;2023-04-28T00:08:16;100223.59;;;11.89;91.10
11525;BME280;5819;49.648;8.330;2023-04-28T00:10:44;100214.69;;;11.76;96.05
11525;BME280;5819;49.648;8.330;2023-04-28T00:13:12;100214.44;;;11.63;100.00
11525;BME280;5819;49.648;8.330;2023-04-28T00:15:39;100200.88;;;11.57;100.00
11525;BME280;5819;49.648;8.330;2023-04-28T00:18:08;100191.91;;;11.62;100.00
11525;BME280;5819;49.648;8.330;2023-04-28T00:20:36;100195.88;;;11.52;100.00
11525;BME280;5819;49.648;8.330;2023-04-28T00:23:04;100208.06;;;11.52;100.00
11525;BME280;5819;49.648;8.330;2023-04-28T00:25:32;100191.59;;;11.51;100.00
11525;BME280;5819;49.648;8.330;2023-04-28T00:27:59;100181.03;;;11.54;100.00
11525;BME280;5819;49.648;8.330;2023-04-28T00:30:28;100174.19;;;11.52;100.00
11525;BME280;5819;49.648;8.330;2023-04-28T00:32:56;100171.50;;;11.36;100.00
11525;BME280;5819;49.648;8.330;2023-04-28T00:35:26;100176.25;;;11.45;100.00
11525;BME280;5819;49.648;8.330;2023-04-28T00:37:54;100172.44;;;11.52;100.00
11525;BME280;5819;49.648;8.330;2023-04-28T00:40:23;100166.84;;;11.60;100.00
11525;BME280;5819;49.648;8.330;2023-04-28T00:42:59;100164.78;;;11.66;100.00
11525;BME280;5819;49.648;8.330;2023-04-28T00:45:27;100148.53;;;11.61;100.00
11525;BME280;5819;49.648;8.330;2023-04-28T00:47:56;100148.75;;;11.57;100.00
11525;BME280;5819;49.648;8.330;2023-04-28T00:50:26;100139.56;;;11.50;100.00
11525;BME280;5819;49.648;8.330;2023-04-28T00:52:56;100138.31;;;11.40;100.00
11525;BME280;5819;49.648;8.330;2023-04-28T00:55:25;100134.56;;;11.28;100.00
11525;BME280;5819;49.648;8.330;2023-04-28T00:57:55;100133.19;;;11.21;100.00
11525;BME280;5819;49.648;8.330;2023-04-28T01:00:25;100135.81;;;11.38;100.00
11525;BME280;5819;49.648;8.330;2023-04-28T01:02:54;100128.63;;;11.43;100.00
11525;BME280;5819;49.648;8.330;2023-04-28T01:05:25;100130.97;;;11.48;100.00
11525;BME280;5819;49.648;8.330;2023-04-28T01:07:55;100134.59;;;11.45;100.00
11525;BME280;5819;49.648;8.330;2023-04-28T01:10:23;100135.88;;;11.37;100.00
11525;BME280;5819;49.648;8.330;2023-04-28T01:12:52;100127.22;;;11.36;100.00
11525;BME280;5819;49.648;8.330;2023-04-28T01:15:22;100118.66;;;11.34;100.00
11525;BME280;5819;49.648;8.330;2023-04-28T01:17:52;100118.72;;;11.33;100.00
11525;BME280;5819;49.648;8.330;2023-04-28T01:20:22;100123.31;;;11.27;100.00
11525;BME280;5819;49.648;8.330;2023-04-28T01:22:51;100124.31;;;11.42;100.00
11525;BME280;5819;49.648;8.330;2023-04-28T01:25:21;100121.72;;;11.42;100.00
11525;BME280;5819;49.648;8.330;2023-04-28T01:27:49;100122.47;;;11.44;100.00
11525;BME280;5819;49.648;8.330;2023-04-28T01:30:18;100128.16;;;11.35;100.00
11525;BME280;5819;49.648;8.330;2023-04-28T01:32:46;100124.56;;;11.38;100.00
11525;BME280;5819;49.648;8.330;2023-04-28T01:35:14;100118.50;;;11.37;100.00
11525;BME280;5819;49.648;8.330;2023-04-28T01:37:42;100119.41;;;11.36;100.00
11525;BME280;5819;49.648;8.330;2023-04-28T01:40:12;100122.84;;;11.37;100.00
11525;BME280;5819;49.648;8.330;2023-04-28T01:42:41;100118.19;;;11.26;100.00
11525;BME280;5819;49.648;8.330;2023-04-28T01:45:10;100126.84;;;11.26;100.00
11525;BME280;5819;49.648;8.330;2023-04-28T01:47:38;100130.81;;;11.34;100.00
11525;BME280;5819;49.648;8.330;2023-04-28T01:50:06;100134.56;;;11.28;100.00
11525;BME280;5819;49.648;8.330;2023-04-28T01:52:35;100128.75;;;11.23;100.00
11525;BME280;5819;49.648;8.330;2023-04-28T01:55:04;100120.56;;;11.31;100.00
11525;BME280;5819;49.648;8.330;2023-04-28T01:57:32;100116.81;;;11.36;100.00
11525;BME280;5819;49.648;8.330;2023-04-28T02:00:04;100104.47;;;11.40;100.00
11525;BME280;5819;49.648;8.330;2023-04-28T02:02:36;100097.50;;;11.40;100.00
11525;BME280;5819;49.648;8.330;2023-04-28T02:05:04;100103.47;;;11.25;100.00
11525;BME280;5819;49.648;8.330;2023-04-28T02:07:32;100101.56;;;11.28;100.00
11525;BME280;5819;49.648;8.330;2023-04-28T02:10:02;100104.31;;;11.25;100.00
11525;BME280;5819;49.648;8.330;2023-04-28T02:12:30;100113.19;;;11.21;100.00
11525;BME280;5819;49.648;8.330;2023-04-28T02:14:58;100114.03;;;11.22;100.00
11525;BME280;5819;49.648;8.330;2023-04-28T02:17:30;100123.56;;;11.23;100.00
11525;BME280;5819;49.648;8.330;2023-04-28T02:19:58;100120.94;;;11.23;100.00
11525;BME280;5819;49.648;8.330;2023-04-28T02:22:26;100126.47;;;11.34;100.00
11525;BME280;5819;49.648;8.330;2023-04-28T02:24:54;100120.56;;;11.31;100.00
11525;BME280;5819;49.648;8.330;2023-04-28T02:27:23;100115.19;;;11.34;100.00
11525;BME280;5819;49.648;8.330;2023-04-28T02:29:51;100118.72;;;11.33;100.00
11525;BME280;5819;49.648;8.330;2023-04-28T02:32:20;100107.44;;;11.32;100.00
11525;BME280;5819;49.648;8.330;2023-04-28T02:34:53;100115.81;;;11.21;100.00
11525;BME280;5819;49.648;8.330;2023-04-28T02:37:23;100108.63;;;11.26;100.00
11525;BME280;5819;49.648;8.330;2023-04-28T02:39:51;100109.31;;;11.30;100.00
11525;BME280;5819;49.648;8.330;2023-04-28T02:42:19;100109.38;;;11.28;100.00
11525;BME280;5819;49.648;8.330;2023-04-28T02:44:48;100106.59;;;11.32;100.00
11525;BME280;5819;49.648;8.330;2023-04-28T02:47:16;100105.78;;;11.31;100.00
11525;BME280;5819;49.648;8.330;2023-04-28T02:49:44;100103.78;;;11.36;100.00
11525;BME280;5819;49.648;8.330;2023-04-28T02:52:13;100108.63;;;11.26;100.00
11525;BME280;5819;49.648;8.330;2023-04-28T02:54:41;100097.50;;;11.23;100.00
11525;BME280;5819;49.648;8.330;2023-04-28T02:57:10;100084.34;;;11.26;100.00
11525;BME280;5819;49.648;8.330;2023-04-28T02:59:38;100089.16;;;11.34;100.00
11525;BME280;5819;49.648;8.330;2023-04-28T03:02:05;100080.34;;;11.36;100.00
11525;BME280;5819;49.648;8.330;2023-04-28T03:04:34;100076.75;;;11.39;100.00
11525;BME280;5819;49.648;8.330;2023-04-28T03:07:02;100087.25;;;11.37;100.00
11525;BME280;5819;49.648;8.330;2023-04-28T03:09:32;100076.53;;;11.26;100.00
11525;BME280;5819;49.648;8.330;2023-04-28T03:12:00;100065.19;;;11.27;100.00
11525;BME280;5819;49.648;8.330;2023-04-28T03:14:30;100052.09;;;11.28;100.00
11525;BME280;5819;49.648;8.330;2023-04-28T03:16:58;100062.50;;;11.28;100.00
11525;BME280;5819;49.648;8.330;2023-04-28T03:19:26;100052.63;;;11.35;100.00
11525;BME280;5819;49.648;8.330;2023-04-28T03:21:54;100043.81;;;11.38;100.00
11525;BME280;5819;49.648;8.330;2023-04-28T03:24:22;100048.03;;;11.40;100.00
11525;BME280;5819;49.648;8.330;2023-04-28T03:26:52;100031.81;;;11.35;100.00
11525;BME280;5819;49.648;8.330;2023-04-28T03:29:20;100033.69;;;11.32;100.00
11525;BME280;5819;49.648;8.330;2023-04-28T03:31:50;100038.31;;;11.26;100.00
11525;BME280;5819;49.648;8.330;2023-04-28T03:34:18;100045.81;;;11.33;100.00
11525;BME280;5819;49.648;8.330;2023-04-28T03:36:46;100039.84;;;11.31;100.00
11525;BME280;5819;49.648;8.330;2023-04-28T03:39:22;100046.72;;;11.32;100.00
11525;BME280;5819;49.648;8.330;2023-04-28T03:41:52;100049.03;;;11.38;100.00
11525;BME280;5819;49.648;8.330;2023-04-28T03:44:38;100049.19;;;11.35;100.00
11525;BME280;5819;49.648;8.330;2023-04-28T03:47:06;100044.66;;;11.21;100.00
11525;BME280;5819;49.648;8.330;2023-04-28T03:49:35;100035.09;;;11.21;100.00
11525;BME280;5819;49.648;8.330;2023-04-28T03:52:03;100036.31;;;11.32;100.00
11525;BME280;5819;49.648;8.330;2023-04-28T03:54:31;100032.41;;;11.40;100.00
11525;BME280;5819;49.648;8.330;2023-04-28T03:57:01;100028.72;;;11.44;100.00
11525;BME280;5819;49.648;8.330;2023-04-28T03:59:32;100034.88;;;11.43;100.00
11525;BME280;5819;49.648;8.330;2023-04-28T04:01:59;100031.31;;;11.44;100.00
11525;BME280;5819;49.648;8.330;2023-04-28T04:04:31;100026.78;;;11.48;100.00
11525;BME280;5819;49.648;8.330;2023-04-28T04:06:59;100022.44;;;11.48;100.00
11525;BME280;5819;49.648;8.330;2023-04-28T04:09:28;100016.69;;;11.42;100.00
11525;BME280;5819;49.648;8.330;2023-04-28T04:11:56;100021.13;;;11.40;100.00
11525;BME280;5819;49.648;8.330;2023-04-28T04:14:25;100021.75;;;11.45;100.00
11525;BME280;5819;49.648;8.330;2023-04-28T04:16:53;100019.06;;;11.46;100.00
11525;BME280;5819;49.648;8.330;2023-04-28T04:19:21;100014.63;;;11.48;100.00
11525;BME280;5819;49.648;8.330;2023-04-28T04:21:53;100014.38;;;11.53;100.00
11525;BME280;5819;49.648;8.330;2023-04-28T04:24:21;100023.94;;;11.52;100.00
11525;BME280;5819;49.648;8.330;2023-04-28T04:26:49;100014.38;;;11.53;100.00
11525;BME280;5819;49.648;8.330;2023-04-28T04:29:39;100009.41;;;11.48;100.00
11525;BME280;5819;49.648;8.330;2023-04-28T04:32:11;100006.06;;;11.46;100.00
11525;BME280;5819;49.648;8.330;2023-04-28T04:34:40;100012.84;;;11.49;100.00
11525;BME280;5819;49.648;8.330;2023-04-28T04:37:09;100005.19;;;11.46;100.00
11525;BME280;5819;49.648;8.330;2023-04-28T04:39:47;100012.16;;;11.45;100.00
11525;BME280;5819;49.648;8.330;2023-04-28T04:42:15;100003.91;;;11.37;100.00
11525;BME280;5819;49.648;8.330;2023-04-28T04:45:00;100004.47;;;11.26;100.00
11525;BME280;5819;49.648;8.330;2023-04-28T04:47:29;100000.41;;;11.21;100.00
11525;BME280;5819;49.648;8.330;2023-04-28T04:49:57;100000.56;;;11.18;100.00
11525;BME280;5819;49.648;8.330;2023-04-28T04:52:25;100001.63;;;11.14;100.00
11525;BME280;5819;49.648;8.330;2023-04-28T04:54:53;99998.34;;;11.10;100.00
11525;BME280;5819;49.648;8.330;2023-04-28T04:57:24;99999.31;;;11.08;100.00
11525;BME280;5819;49.648;8.330;2023-04-28T05:00:07;100000.28;;;11.07;100.00
11525;BME280;5819;49.648;8.330;2023-04-28T05:02:36;99990.75;;;11.06;100.00
11525;BME280;5819;49.648;8.330;2023-04-28T05:05:05;99999.41;;;11.06;100.00
11525;BME280;5819;49.648;8.330;2023-04-28T05:07:59;99995.06;;;11.07;100.00
11525;BME280;5819;49.648;8.330;2023-04-28T05:10:27;99986.09;;;11.12;100.00
11525;BME280;5819;49.648;8.330;2023-04-28T05:12:55;99992.06;;;11.14;100.00
11525;BME280;5819;49.648;8.330;2023-04-28T05:15:25;99998.13;;;11.15;100.00
11525;BME280;5819;49.648;8.330;2023-04-28T05:18:19;100003.16;;;11.18;100.00
11525;BME280;5819;49.648;8.330;2023-04-28T05:20:48;99998.88;;;11.17;100.00
11525;BME280;5819;49.648;8.330;2023-04-28T05:23:18;100006.53;;;11.20;100.00
11525;BME280;5819;49.648;8.330;2023-04-28T05:25:46;100010.13;;;11.17;100.00
11525;BME280;5819;49.648;8.330;2023-04-28T05:28:14;100000.78;;;11.13;100.00
11525;BME280;5819;49.648;8.330;2023-04-28T05:30:45;99999.31;;;11.08;100.00
11525;BME280;5819;49.648;8.330;2023-04-28T05:33:14;99992.75;;;11.01;100.00
11525;BME280;5819;49.648;8.330;2023-04-28T05:35:42;99979.38;;;10.91;100.00
11525;BME280;5819;49.648;8.330;2023-04-28T05:38:11;99990.91;;;10.86;100.00
11525;BME280;5819;49.648;8.330;2023-04-28T05:40:41;99991.75;;;10.86;100.00
11525;BME280;5819;49.648;8.330;2023-04-28T05:43:11;99988.25;;;10.87;100.00
11525;BME280;5819;49.648;8.330;2023-04-28T05:45:39;99996.97;;;10.86;100.00
11525;BME280;5819;49.648;8.330;2023-04-28T05:48:11;99996.28;;;10.83;100.00
11525;BME280;5819;49.648;8.330;2023-04-28T05:50:40;100002.22;;;10.85;100.00
11525;BME280;5819;49.648;8.330;2023-04-28T05:53:09;100000.78;;;10.79;100.00
11525;BME280;5819;49.648;8.330;2023-04-28T05:55:37;100000.63;;;10.82;100.00
11525;BME280;5819;49.648;8.330;2023-04-28T05:58:05;100010.47;;;10.75;100.00
11525;BME280;5819;49.648;8.330;2023-04-28T06:00:33;100009.66;;;10.75;100.00
11525;BME280;5819;49.648;8.330;2023-04-28T06:03:02;100009.50;;;10.78;100.00
11525;BME280;5819;49.648;8.330;2023-04-28T06:05:33;100006.34;;;10.71;100.00
11525;BME280;5819;49.648;8.330;2023-04-28T06:08:01;100004.75;;;10.69;100.00
11525;BME280;5819;49.648;8.330;2023-04-28T06:10:30;100000.44;;;10.68;100.00
11525;BME280;5819;49.648;8.330;2023-04-28T06:12:58;100000.66;;;10.63;100.00
11525;BME280;5819;49.648;8.330;2023-04-28T06:15:26;99995.63;;;10.60;100.00
11525;BME280;5819;49.648;8.330;2023-04-28T06:17:54;100008.41;;;10.65;100.00
11525;BME280;5819;49.648;8.330;2023-04-28T06:20:23;100006.13;;;10.76;100.00
11525;BME280;5819;49.648;8.330;2023-04-28T06:22:54;99998.69;;;10.68;100.00
11525;BME280;5819;49.648;8.330;2023-04-28T06:25:23;99999.75;;;10.64;100.00
11525;BME280;5819;49.648;8.330;2023-04-28T06:27:51;100004.81;;;10.67;100.00
11525;BME280;5819;49.648;8.330;2023-04-28T06:30:21;100011.91;;;10.64;100.00
11525;BME280;5819;49.648;8.330;2023-04-28T06:32:54;100004.03;;;10.65;100.00
11525;BME280;5819;49.648;8.330;2023-04-28T06:35:25;100000.66;;;10.63;100.00
11525;BME280;5819;49.648;8.330;2023-04-28T06:38:05;100009.94;;;10.69;100.00
11525;BME280;5819;49.648;8.330;2023-04-28T06:40:33;100013.59;;;10.65;100.00
11525;BME280;5819;49.648;8.330;2023-04-28T06:43:03;100018.53;;;10.71;100.00
11525;BME280;5819;49.648;8.330;2023-04-28T06:45:42;100012.69;;;10.66;100.00
11525;BME280;5819;49.648;8.330;2023-04-28T06:48:10;100008.19;;;10.69;100.00
11525;BME280;5819;49.648;8.330;2023-04-28T06:50:38;100011.63;;;10.70;100.00
11525;BME280;5819;49.648;8.330;2023-04-28T06:53:11;100004.53;;;10.73;100.00
11525;BME280;5819;49.648;8.330;2023-04-28T06:55:38;100000.84;;;10.77;100.00
11525;BME280;5819;49.648;8.330;2023-04-28T06:58:07;100003.63;;;10.74;100.00
11525;BME280;5819;49.648;8.330;2023-04-28T07:00:35;99996.41;;;10.79;100.00
11525;BME280;5819;49.648;8.330;2023-04-28T07:03:03;99997.19;;;10.82;100.00
11525;BME280;5819;49.648;8.330;2023-04-28T07:05:31;99985.31;;;10.76;100.00
11525;BME280;5819;49.648;8.330;2023-04-28T07:08:00;99984.13;;;10.83;100.00
11525;BME280;5819;49.648;8.330;2023-04-28T07:10:29;99974.53;;;10.84;100.00
11525;BME280;5819;49.648;8.330;2023-04-28T07:12:57;99976.00;;;10.89;100.00
11525;BME280;5819;49.648;8.330;2023-04-28T07:15:25;99972.38;;;10.92;100.00
11525;BME280;5819;49.648;8.330;2023-04-28T07:17:53;99968.63;;;10.97;100.00
11525;BME280;5819;49.648;8.330;2023-04-28T07:20:21;99967.63;;;11.00;100.00
11525;BME280;5819;49.648;8.330;2023-04-28T07:22:49;99967.56;;;11.01;100.00
11525;BME280;5819;49.648;8.330;2023-04-28T07:25:17;99971.88;;;11.02;100.00
11525;BME280;5819;49.648;8.330;2023-04-28T07:27:46;99973.06;;;11.12;100.00
11525;BME280;5819;49.648;8.330;2023-04-28T07:30:15;99977.38;;;11.13;100.00
11525;BME280;5819;49.648;8.330;2023-04-28T07:32:53;99975.59;;;11.14;100.00
11525;BME280;5819;49.648;8.330;2023-04-28T07:35:21;99978.50;;;11.25;100.00
11525;BME280;5819;49.648;8.330;2023-04-28T07:37:49;99963.72;;;11.25;100.00
11525;BME280;5819;49.648;8.330;2023-04-28T07:40:17;99960.47;;;11.38;100.00
11525;BME280;5819;49.648;8.330;2023-04-28T07:42:47;99960.94;;;11.46;100.00
11525;BME280;5819;49.648;8.330;2023-04-28T07:45:15;99958.53;;;11.58;100.00
11525;BME280;5819;49.648;8.330;2023-04-28T07:47:42;99960.34;;;11.73;100.00
11525;BME280;5819;49.648;8.330;2023-04-28T07:50:10;99956.47;;;11.81;100.00
11525;BME280;5819;49.648;8.330;2023-04-28T07:52:38;99951.94;;;11.84;100.00
11525;BME280;5819;49.648;8.330;2023-04-28T07:55:06;99941.69;;;11.97;100.00
11525;BME280;5819;49.648;8.330;2023-04-28T07:57:34;99949.88;;;12.06;100.00
11525;BME280;5819;49.648;8.330;2023-04-28T08:00:05;99953.22;;;12.08;100.00
11525;BME280;5819;49.648;8.330;2023-04-28T08:02:38;99956.91;;;12.20;100.00
11525;BME280;5819;49.648;8.330;2023-04-28T08:05:07;99945.66;;;12.19;100.00
11525;BME280;5819;49.648;8.330;2023-04-28T08:07:36;99947.84;;;12.27;100.00
11525;BME280;5819;49.648;8.330;2023-04-28T08:10:05;99964.34;;;12.28;100.00
11525;BME280;5819;49.648;8.330;2023-04-28T08:12:33;99958.34;;;12.26;100.00
11525;BME280;5819;49.648;8.330;2023-04-28T08:15:01;99959.50;;;12.36;100.00
11525;BME280;5819;49.648;8.330;2023-04-28T08:17:30;99960.59;;;12.47;100.00
11525;BME280;5819;49.648;8.330;2023-04-28T08:19:58;99960.91;;;12.57;100.00
11525;BME280;5819;49.648;8.330;2023-04-28T08:22:27;99965.22;;;12.58;100.00
11525;BME280;5819;49.648;8.330;2023-04-28T08:24:55;99961.44;;;12.63;100.00
11525;BME280;5819;49.648;8.330;2023-04-28T08:27:23;99966.34;;;12.68;100.00
11525;BME280;5819;49.648;8.330;2023-04-28T08:29:51;99971.75;;;12.65;100.00
11525;BME280;5819;49.648;8.330;2023-04-28T08:32:19;99967.97;;;12.71;100.00
11525;BME280;5819;49.648;8.330;2023-04-28T08:34:48;99964.16;;;12.76;100.00
11525;BME280;5819;49.648;8.330;2023-04-28T08:37:16;99976.50;;;12.88;100.00
11525;BME280;5819;49.648;8.330;2023-04-28T08:39:43;99969.25;;;12.93;100.00
11525;BME280;5819;49.648;8.330;2023-04-28T08:42:12;99967.56;;;12.92;100.00
11525;BME280;5819;49.648;8.330;2023-04-28T08:44:40;99969.91;;;13.27;100.00
11525;BME280;5819;49.648;8.330;2023-04-28T08:47:11;99963.28;;;13.49;100.00
11525;BME280;5819;49.648;8.330;2023-04-28T08:49:40;99956.84;;;13.69;100.00
11525;BME280;5819;49.648;8.330;2023-04-28T08:52:12;99964.97;;;13.79;100.00
11525;BME280;5819;49.648;8.330;2023-04-28T08:54:43;99970.22;;;13.79;100.00
11525;BME280;5819;49.648;8.330;2023-04-28T08:57:12;99975.06;;;13.71;100.00
11525;BME280;5819;49.648;8.330;2023-04-28T08:59:40;99964.50;;;13.72;100.00
11525;BME280;5819;49.648;8.330;2023-04-28T09:02:08;99979.66;;;13.67;100.00
11525;BME280;5819;49.648;8.330;2023-04-28T09:04:37;99971.59;;;13.70;100.00
11525;BME280;5819;49.648;8.330;2023-04-28T09:07:11;99975.06;;;13.71;100.00
11525;BME280;5819;49.648;8.330;2023-04-28T09:09:39;99981.41;;;13.81;100.00
11525;BME280;5819;49.648;8.330;2023-04-28T09:12:07;99981.13;;;13.71;100.00
11525;BME280;5819;49.648;8.330;2023-04-28T09:14:36;99991.09;;;13.65;100.00
11525;BME280;5819;49.648;8.330;2023-04-28T09:17:09;99991.75;;;13.54;100.00
11525;BME280;5819;49.648;8.330;2023-04-28T09:19:39;99982.25;;;13.53;100.00
11525;BME280;5819;49.648;8.330;2023-04-28T09:22:08;99974.78;;;13.61;100.00
11525;BME280;5819;49.648;8.330;2023-04-28T09:24:52;99967.59;;;13.79;100.00
11525;BME280;5819;49.648;8.330;2023-04-28T09:27:26;99970.38;;;13.90;100.00
11525;BME280;5819;49.648;8.330;2023-04-28T09:29:54;99975.88;;;13.85;100.00
11525;BME280;5819;49.648;8.330;2023-04-28T09:32:23;99972.34;;;13.86;100.00
11525;BME280;5819;49.648;8.330;2023-04-28T09:34:53;99981.69;;;13.90;100.00
11525;BME280;5819;49.648;8.330;2023-04-28T09:37:24;99981.13;;;13.85;100.00
11525;BME280;5819;49.648;8.330;2023-04-28T09:39:54;99981.03;;;13.87;100.00
11525;BME280;5819;49.648;8.330;2023-04-28T09:42:33;99976.81;;;13.84;100.00
11525;BME280;5819;49.648;8.330;2023-04-28T09:45:03;99979.25;;;13.87;100.00
11525;BME280;5819;49.648;8.330;2023-04-28T09:47:32;99981.69;;;13.90;100.00
11525;BME280;5819;49.648;8.330;2023-04-28T09:50:02;99983.16;;;13.94;100.00
11525;BME280;5819;49.648;8.330;2023-04-28T09:52:32;99985.69;;;13.96;100.00
11525;BME280;5819;49.648;8.330;2023-04-28T09:55:03;99984.66;;;13.98;100.00
11525;BME280;5819;49.648;8.330;2023-04-28T09:57:34;99982.41;;;14.06;100.00
11525;BME280;5819;49.648;8.330;2023-04-28T10:00:04;99978.22;;;14.04;100.00
11525;BME280;5819;49.648;8.330;2023-04-28T10:02:33;99977.25;;;14.05;100.00
11525;BME280;5819;49.648;8.330;2023-04-28T10:05:07;99968.78;;;14.01;100.00
11525;BME280;5819;49.648;8.330;2023-04-28T10:07:37;99976.81;;;13.98;100.00
11525;BME280;5819;49.648;8.330;2023-04-28T10:10:07;99964.81;;;14.23;100.00
11525;BME280;5819;49.648;8.330;2023-04-28T10:12:36;99976.56;;;14.30;100.00
11525;BME280;5819;49.648;8.330;2023-04-28T10:15:06;99975.81;;;14.42;100.00
11525;BME280;5819;49.648;8.330;2023-04-28T10:17:35;99967.22;;;14.40;100.00
11525;BME280;5819;49.648;8.330;2023-04-28T10:20:04;99972.81;;;14.34;100.00
11525;BME280;5819;49.648;8.330;2023-04-28T10:22:46;99968.91;;;14.27;100.00
11525;BME280;5819;49.648;8.330;2023-04-28T10:25:26;99969.56;;;14.30;100.00
11525;BME280;5819;49.648;8.330;2023-04-28T10:27:56;99968.06;;;14.26;100.00
11525;BME280;5819;49.648;8.330;2023-04-28T10:30:26;99970.88;;;14.23;100.00
11525;BME280;5819;49.648;8.330;2023-04-28T10:33:23;99971.91;;;14.21;100.00
11525;BME280;5819;49.648;8.330;2023-04-28T10:35:53;99966.66;;;14.21;100.00
11525;BME280;5819;49.648;8.330;2023-04-28T10:41:32;99958.63;;;14.38;100.00
11525;BME280;5819;49.648;8.330;2023-04-28T10:44:00;99949.44;;;14.45;100.00
11525;BME280;5819;49.648;8.330;2023-04-28T10:47:00;99947.06;;;14.55;100.00
11525;BME280;5819;49.648;8.330;2023-04-28T10:52:49;99961.72;;;14.57;100.00
11525;BME280;5819;49.648;8.330;2023-04-28T10:55:37;99960.16;;;14.55;100.00
11525;BME280;5819;49.648;8.330;2023-04-28T10:58:32;99954.78;;;14.43;100.00
11525;BME280;5819;49.648;8.330;2023-04-28T11:01:23;99956.22;;;14.35;100.00
11525;BME280;5819;49.648;8.330;2023-04-28T11:03:52;99951.03;;;14.33;100.00
11525;BME280;5819;49.648;8.330;2023-04-28T11:06:27;99948.72;;;14.29;100.00
11525;BME280;5819;49.648;8.330;2023-04-28T11:08:58;99955.72;;;14.28;100.00
11525;BME280;5819;49.648;8.330;2023-04-28T11:11:28;99957.69;;;14.25;100.00
11525;BME280;5819;49.648;8.330;2023-04-28T11:14:32;99958.81;;;14.21;100.00
11525;BME280;5819;49.648;8.330;2023-04-28T11:17:02;99941.97;;;14.12;100.00
11525;BME280;5819;49.648;8.330;2023-04-28T11:19:31;99938.50;;;14.12;100.00
11525;BME280;5819;49.648;8.330;2023-04-28T11:22:01;99933.34;;;14.10;100.00
11525;BME280;5819;49.648;8.330;2023-04-28T11:24:29;99937.66;;;14.11;100.00
11525;BME280;5819;49.648;8.330;2023-04-28T11:26:58;99936.72;;;14.12;100.00
11525;BME280;5819;49.648;8.330;2023-04-28T11:29:33;99938.22;;;14.16;100.00
11525;BME280;5819;49.648;8.330;2023-04-28T11:32:01;99937.31;;;14.30;100.00
11525;BME280;5819;49.648;8.330;2023-04-28T11:34:30;99942.41;;;14.45;100.00
11525;BME280;5819;49.648;8.330;2023-04-28T11:36:58;99946.44;;;14.51;100.00
11525;BME280;5819;49.648;8.330;2023-04-28T11:39:27;99948.94;;;14.52;100.00
11525;BME280;5819;49.648;8.330;2023-04-28T11:41:57;99945.09;;;14.58;100.00
11525;BME280;5819;49.648;8.330;2023-04-28T11:44:26;99929.47;;;14.57;100.00
11525;BME280;5819;49.648;8.330;2023-04-28T11:46:59;99933.91;;;14.56;100.00
11525;BME280;5819;49.648;8.330;2023-04-28T11:49:29;99932.63;;;14.62;100.00
11525;BME280;5819;49.648;8.330;2023-04-28T11:52:03;99924.91;;;14.73;100.00
11525;BME280;5819;49.648;8.330;2023-04-28T11:54:32;99939.28;;;14.92;100.00
11525;BME280;5819;49.648;8.330;2023-04-28T11:57:00;99942.97;;;14.90;100.00
11525;BME280;5819;49.648;8.330;2023-04-28T11:59:30;99942.91;;;14.65;100.00
11525;BME280;5819;49.648;8.330;2023-04-28T12:02:05;99939.75;;;14.60;100.00
11525;BME280;5819;49.648;8.330;2023-04-28T12:04:34;99931.78;;;14.61;100.00
11525;BME280;5819;49.648;8.330;2023-04-28T12:07:05;99937.88;;;14.62;100.00
11525;BME280;5819;49.648;8.330;2023-04-28T12:09:33;99936.00;;;14.64;100.00
11525;BME280;5819;49.648;8.330;2023-04-28T12:12:02;99940.78;;;14.57;100.00
11525;BME280;5819;49.648;8.330;2023-04-28T12:14:32;99957.00;;;14.49;100.00
11525;BME280;5819;49.648;8.330;2023-04-28T12:17:03;99953.53;;;14.49;100.00
11525;BME280;5819;49.648;8.330;2023-04-28T12:19:42;99944.38;;;14.56;100.00
11525;BME280;5819;49.648;8.330;2023-04-28T12:22:11;99931.69;;;14.63;100.00
11525;BME280;5819;49.648;8.330;2023-04-28T12:24:43;99930.59;;;14.79;100.00
11525;BME280;5819;49.648;8.330;2023-04-28T12:27:16;99927.16;;;14.91;100.00
11525;BME280;5819;49.648;8.330;2023-04-28T12:29:47;99938.34;;;14.93;100.00
11525;BME280;5819;49.648;8.330;2023-04-28T12:32:17;99939.63;;;14.88;100.00
11525;BME280;5819;49.648;8.330;2023-04-28T12:34:45;99948.50;;;14.85;100.00
11525;BME280;5819;49.648;8.330;2023-04-28T12:37:16;99953.94;;;14.82;100.00
11525;BME280;5819;49.648;8.330;2023-04-28T12:39:44;99950.06;;;14.75;100.00
11525;BME280;5819;49.648;8.330;2023-04-28T12:42:12;99946.59;;;14.75;100.00
11525;BME280;5819;49.648;8.330;2023-04-28T12:44:40;99930.97;;;14.73;100.00
11525;BME280;5819;49.648;8.330;2023-04-28T12:47:08;99924.22;;;14.83;100.00
11525;BME280;5819;49.648;8.330;2023-04-28T12:55:44;99935.22;;;15.01;100.00
11525;BME280;5819;49.648;8.330;2023-04-28T12:58:12;99941.09;;;15.05;100.00
11525;BME280;5819;49.648;8.330;2023-04-28T13:00:40;99943.06;;;15.01;100.00
11525;BME280;5819;49.648;8.330;2023-04-28T13:03:08;99939.59;;;15.00;100.00
11525;BME280;5819;49.648;8.330;2023-04-28T13:05:36;99937.50;;;14.93;100.00
11525;BME280;5819;49.648;8.330;2023-04-28T13:08:04;99939.81;;;14.97;100.00
11525;BME280;5819;49.648;8.330;2023-04-28T13:10:32;99927.03;;;14.93;100.00
11525;BME280;5819;49.648;8.330;2023-04-28T13:13:02;99925.56;;;14.89;100.00
11525;BME280;5819;49.648;8.330;2023-04-28T13:15:31;99915.28;;;14.86;100.00
11525;BME280;5819;49.648;8.330;2023-04-28T13:17:59;99913.31;;;14.89;100.00
11525;BME280;5819;49.648;8.330;2023-04-28T13:20:27;99912.16;;;14.93;100.00
11525;BME280;5819;49.648;8.330;2023-04-28T13:22:57;99917.09;;;14.98;100.00